Time;durP1;ratioP1;P1;durP2;ratioP2;P2;SDS_P1;SDS_P2;PMS_P1;PMS_P2;Temp;Humidity;BMP_temperature;BMP_pressure;BME280_temperature;BME280_humidity;BME280_pressure;Samples;Min_cycle;Max_cycle;Signal;HPM_P1;HPM_P2
2022/07/19 00:02:01;;;;;;;2.13;1.13;;;17.70;1.00;;;;;;5003787;28;34579;-77
2022/07/19 00:04:27;;;;;;;2.50;1.40;;;17.60;1.00;;;;;;5030851;28;34290;-77
2022/07/19 00:06:54;;;;;;;2.30;1.15;;;17.50;1.00;;;;;;5056093;28;34076;-77
2022/07/19 00:09:21;;;;;;;2.30;1.30;;;17.40;1.00;;;;;;5022496;28;35529;-77
2022/07/19 00:11:47;;;;;;;1.33;1.23;;;17.40;1.00;;;;;;5057220;28;34380;-77
2022/07/19 00:14:13;;;;;;;1.10;1.00;;;17.30;1.00;;;;;;5022934;28;34581;-77
2022/07/19 00:16:39;;;;;;;4.90;1.25;;;17.30;1.00;;;;;;5022732;28;34312;-77
2022/07/19 00:19:06;;;;;;;2.08;1.20;;;17.20;1.00;;;;;;5005516;28;35618;-77
2022/07/19 00:21:31;;;;;;;1.23;1.13;;;17.10;1.10;;;;;;5040355;28;34200;-77
2022/07/19 00:24:00;;;;;;;2.30;1.25;;;17.10;1.20;;;;;;5012345;28;34433;-77
2022/07/19 00:26:27;;;;;;;1.88;1.10;;;17.10;1.30;;;;;;5035615;28;34090;-77
2022/07/19 00:28:54;;;;;;;1.23;1.10;;;17.10;1.40;;;;;;5021924;28;36263;-77
2022/07/19 00:31:22;;;;;;;1.55;1.20;;;17.00;1.30;;;;;;5022334;28;34191;-77
2022/07/19 00:33:48;;;;;;;8.48;1.25;;;17.00;1.60;;;;;;5022685;28;34140;-76
2022/07/19 00:36:14;;;;;;;2.90;1.30;;;17.00;1.50;;;;;;5004114;28;34530;-77
2022/07/19 00:38:40;;;;;;;1.85;1.30;;;16.90;1.60;;;;;;5031337;27;35329;-77
2022/07/19 00:41:07;;;;;;;1.63;1.50;;;16.80;1.70;;;;;;5022284;28;34445;-77
2022/07/19 00:43:33;;;;;;;3.63;1.38;;;16.80;2.00;;;;;;5022233;28;34190;-76
2022/07/19 00:45:59;;;;;;;1.25;1.05;;;16.80;1.90;;;;;;5025124;28;34332;-77
2022/07/19 00:48:25;;;;;;;2.60;1.42;;;16.80;1.90;;;;;;5025080;28;36250;-77
2022/07/19 00:50:51;;;;;;;2.05;1.40;;;16.70;2.00;;;;;;5024478;28;34365;-77
2022/07/19 00:53:19;;;;;;;3.28;1.40;;;16.70;2.00;;;;;;5024060;28;34503;-77
2022/07/19 00:55:45;;;;;;;1.35;1.25;;;16.60;2.40;;;;;;5025603;28;34147;-76
2022/07/19 00:58:13;;;;;;;1.65;1.50;;;16.60;2.20;;;;;;5024791;28;35853;-77
2022/07/19 01:00:40;;;;;;;1.63;1.30;;;16.60;2.30;;;;;;5042561;28;34547;-77
2022/07/19 01:03:08;;;;;;;1.30;1.20;;;16.50;2.50;;;;;;5024259;28;34342;-77
2022/07/19 01:05:35;;;;;;;1.63;1.30;;;16.50;2.80;;;;;;5016180;28;34092;-77
2022/07/19 01:08:01;;;;;;;1.80;1.55;;;16.40;2.50;;;;;;5128226;27;36629;-76
2022/07/19 01:10:28;;;;;;;3.08;1.30;;;16.40;2.60;;;;;;5024883;28;34098;-77
2022/07/19 01:12:55;;;;;;;2.13;1.35;;;16.30;2.70;;;;;;5043091;28;34337;-77
2022/07/19 01:15:25;;;;;;;1.65;1.35;;;16.30;2.80;;;;;;5005433;28;34251;-77
2022/07/19 01:17:52;;;;;;;2.00;1.50;;;16.20;3.10;;;;;;4999324;28;36422;-77
2022/07/19 01:20:20;;;;;;;1.80;1.30;;;16.20;3.00;;;;;;5015711;28;34311;-77
2022/07/19 01:22:47;;;;;;;3.15;1.20;;;16.20;3.30;;;;;;5021949;28;34291;-76
2022/07/19 01:25:13;;;;;;;1.63;1.40;;;16.10;3.00;;;;;;5022472;28;34242;-77
2022/07/19 01:27:42;;;;;;;1.58;1.27;;;16.00;3.00;;;;;;5022039;28;34416;-77
2022/07/19 01:30:24;;;;;;;1.50;1.40;;;16.00;3.30;;;;;;5034584;28;34211;-77
2022/07/19 01:32:51;;;;;;;2.95;1.20;;;15.90;7.30;;;;;;5012323;28;34439;-77
2022/07/19 01:35:17;;;;;;;1.52;1.40;;;15.90;3.30;;;;;;5017677;28;34422;-77
2022/07/19 01:37:43;;;;;;;1.60;1.50;;;15.90;3.40;;;;;;5021001;28;35761;-76
2022/07/19 01:40:12;;;;;;;1.38;1.20;;;15.80;3.40;;;;;;5017010;28;34551;-77
2022/07/19 01:42:38;;;;;;;1.40;1.30;;;15.80;3.90;;;;;;5010004;28;34275;-77
2022/07/19 01:45:07;;;;;;;3.15;1.83;;;15.80;3.60;;;;;;5020932;28;34085;-77
2022/07/19 01:47:33;;;;;;;1.48;1.38;;;15.70;3.80;;;;;;5022431;28;34386;-77
2022/07/19 01:49:59;;;;;;;1.95;1.45;;;15.70;3.80;;;;;;5004587;28;34181;-77
2022/07/19 01:52:25;;;;;;;2.72;1.55;;;15.60;3.80;;;;;;5004965;28;34208;-77
2022/07/19 01:54:50;;;;;;;1.75;1.65;;;15.60;3.80;;;;;;5022431;28;34347;-77
2022/07/19 01:57:16;;;;;;;2.85;1.75;;;15.60;3.90;;;;;;5010777;28;34344;-77
2022/07/19 01:59:42;;;;;;;2.10;1.58;;;15.50;4.00;;;;;;5022017;28;34195;-77
2022/07/19 02:02:08;;;;;;;2.80;1.30;;;15.50;4.10;;;;;;5020025;28;34129;-76
2022/07/19 02:04:34;;;;;;;1.55;1.40;;;15.40;4.20;;;;;;5021054;28;34124;-77
2022/07/19 02:07:00;;;;;;;1.95;1.40;;;15.40;4.20;;;;;;5020735;28;35816;-77
2022/07/19 02:09:26;;;;;;;1.98;1.15;;;15.40;4.20;;;;;;5007579;28;34256;-77
2022/07/19 02:11:52;;;;;;;1.50;1.40;;;15.40;4.20;;;;;;5011335;28;34014;-77
2022/07/19 02:14:18;;;;;;;1.40;1.30;;;15.30;4.30;;;;;;5003915;28;34187;-76
2022/07/19 02:16:44;;;;;;;1.60;1.50;;;15.30;4.30;;;;;;4996251;28;36287;-77
2022/07/19 02:19:11;;;;;;;2.13;1.52;;;15.20;4.30;;;;;;4981757;28;34144;-77
2022/07/19 02:21:38;;;;;;;1.45;1.35;;;15.20;4.50;;;;;;4982273;28;34350;-77
2022/07/19 02:24:06;;;;;;;5.55;1.50;;;15.20;4.60;;;;;;4997612;28;35394;-76
2022/07/19 02:26:33;;;;;;;2.95;1.45;;;15.20;4.60;;;;;;5008395;28;35560;-76
2022/07/19 02:28:59;;;;;;;2.05;1.30;;;15.10;4.70;;;;;;5010687;28;34074;-77
2022/07/19 02:31:25;;;;;;;1.63;1.48;;;15.10;4.70;;;;;;5009529;28;34076;-77
2022/07/19 02:33:51;;;;;;;2.22;1.30;;;15.10;4.80;;;;;;5011113;28;34195;-77
2022/07/19 02:36:17;;;;;;;2.22;1.38;;;15.00;4.90;;;;;;5002170;28;34344;-76
2022/07/19 02:38:44;;;;;;;2.33;1.80;;;15.00;4.90;;;;;;5002099;28;34215;-77
2022/07/19 02:41:10;;;;;;;2.55;1.40;;;15.00;5.00;;;;;;5001034;28;34267;-77
2022/07/19 02:43:36;;;;;;;1.40;1.20;;;15.00;5.00;;;;;;5017184;28;35402;-76
2022/07/19 02:46:02;;;;;;;2.50;1.50;;;14.90;5.10;;;;;;5019022;28;36439;-77
2022/07/19 02:48:28;;;;;;;1.35;1.25;;;14.90;5.10;;;;;;4980713;28;34730;-77
2022/07/19 02:50:54;;;;;;;1.38;1.20;;;14.90;5.10;;;;;;5003114;28;35686;-77
2022/07/19 02:53:20;;;;;;;2.05;1.58;;;14.80;5.10;;;;;;4994852;28;34696;-77
2022/07/19 02:55:46;;;;;;;2.53;1.40;;;14.80;5.30;;;;;;4980803;28;35560;-77
2022/07/19 02:58:11;;;;;;;2.35;1.35;;;14.70;5.90;;;;;;5004727;28;34340;-76
2022/07/19 03:00:37;;;;;;;1.65;1.33;;;14.70;5.40;;;;;;4997967;28;34401;-77
2022/07/19 03:05:45;;;;;;;3.15;1.40;;;14.70;5.60;;;;;;5018327;28;34207;-77
2022/07/19 03:08:11;;;;;;;1.42;1.33;;;14.60;5.60;;;;;;5019913;28;34254;-76
2022/07/19 03:10:37;;;;;;;3.47;1.25;;;14.50;5.60;;;;;;5009608;28;34347;-76
2022/07/19 03:13:04;;;;;;;2.42;1.42;;;14.50;5.80;;;;;;5014091;28;34035;-77
2022/07/19 03:15:31;;;;;;;1.85;1.50;;;14.50;5.90;;;;;;5005844;28;36951;-77
2022/07/19 03:17:57;;;;;;;2.60;1.48;;;14.50;6.00;;;;;;5019748;28;34196;-77
2022/07/19 03:20:22;;;;;;;3.10;1.30;;;14.50;6.00;;;;;;5019846;28;34165;-77
2022/07/19 03:22:48;;;;;;;3.58;1.70;;;14.40;6.00;;;;;;5020729;28;34258;-76
2022/07/19 03:25:14;;;;;;;1.80;1.63;;;14.40;6.00;;;;;;5019097;28;34341;-77
2022/07/19 03:27:40;;;;;;;2.30;1.40;;;14.40;6.00;;;;;;5010433;28;34143;-77
2022/07/19 03:30:07;;;;;;;2.28;1.70;;;14.40;6.10;;;;;;5018971;28;34157;-77
2022/07/19 03:32:33;;;;;;;3.58;1.67;;;14.30;6.10;;;;;;5053024;28;34366;-76
2022/07/19 03:34:59;;;;;;;1.85;1.38;;;14.30;6.10;;;;;;5019266;28;36657;-77
2022/07/19 03:37:25;;;;;;;1.48;1.38;;;14.20;6.20;;;;;;5019757;28;34235;-77
2022/07/19 03:39:51;;;;;;;4.13;1.60;;;14.20;6.30;;;;;;5013008;28;34287;-77
2022/07/19 03:42:17;;;;;;;1.70;1.50;;;14.10;6.30;;;;;;5018964;28;34201;-77
2022/07/19 03:44:43;;;;;;;1.30;1.20;;;14.10;6.30;;;;;;5020278;28;34428;-77
2022/07/19 03:47:08;;;;;;;4.72;1.45;;;14.10;6.50;;;;;;5002885;28;34399;-77
2022/07/19 03:49:34;;;;;;;1.58;1.10;;;14.10;6.60;;;;;;5043841;28;34268;-76
2022/07/19 03:52:00;;;;;;;1.25;1.15;;;14.10;6.60;;;;;;5017827;28;34487;-77
2022/07/19 03:54:26;;;;;;;4.57;1.30;;;14.10;6.70;;;;;;5033852;28;35530;-77
2022/07/19 03:56:52;;;;;;;2.83;1.65;;;14.00;6.70;;;;;;5003921;28;34252;-76
2022/07/19 03:59:18;;;;;;;2.38;1.75;;;14.00;6.70;;;;;;5019256;28;34489;-77
2022/07/19 04:01:44;;;;;;;8.18;1.85;;;14.00;6.70;;;;;;5019397;28;34539;-77
2022/07/19 04:04:10;;;;;;;5.32;1.75;;;14.00;6.70;;;;;;5013975;28;36377;-77
2022/07/19 04:06:36;;;;;;;3.05;1.92;;;14.00;6.80;;;;;;5015374;28;34360;-76
2022/07/19 04:09:02;;;;;;;1.77;1.40;;;13.90;6.90;;;;;;5018392;28;34557;-77
2022/07/19 04:11:28;;;;;;;5.25;1.70;;;13.90;6.90;;;;;;5002566;28;34177;-77
2022/07/19 04:13:54;;;;;;;1.95;1.30;;;13.90;7.00;;;;;;5002375;28;36285;-77
2022/07/19 04:16:20;;;;;;;1.90;1.58;;;13.90;7.00;;;;;;5027442;28;34129;-77
2022/07/19 04:18:46;;;;;;;1.85;1.33;;;13.90;6.90;;;;;;5003213;28;34349;-77
2022/07/19 04:21:12;;;;;;;1.63;1.52;;;13.90;6.90;;;;;;5025765;28;34203;-77
2022/07/19 04:23:38;;;;;;;3.15;1.95;;;13.90;6.90;;;;;;5029565;28;34181;-77
2022/07/19 04:26:04;;;;;;;1.73;1.60;;;14.00;7.10;;;;;;5021989;28;34205;-77
2022/07/19 04:28:29;;;;;;;1.33;1.23;;;14.00;7.10;;;;;;5022220;28;34309;-77
2022/07/19 04:30:55;;;;;;;2.25;1.55;;;14.00;7.10;;;;;;5005585;28;35685;-77
2022/07/19 04:33:21;;;;;;;1.70;1.60;;;13.90;7.30;;;;;;5003817;28;35662;-77
2022/07/19 04:35:47;;;;;;;2.05;1.50;;;14.00;7.30;;;;;;5020065;28;34305;-76
2022/07/19 04:38:13;;;;;;;2.35;1.60;;;14.00;7.20;;;;;;5064444;28;34213;-77
2022/07/19 04:40:39;;;;;;;2.92;1.35;;;14.00;7.40;;;;;;5022204;28;34375;-77
2022/07/19 04:43:06;;;;;;;2.05;1.50;;;14.10;7.50;;;;;;5027851;27;36014;-77
2022/07/19 04:45:32;;;;;;;1.70;1.60;;;14.10;7.50;;;;;;5106945;27;34131;-77
2022/07/19 04:47:58;;;;;;;1.80;1.58;;;14.10;7.50;;;;;;5008679;28;34196;-77
2022/07/19 04:50:24;;;;;;;2.22;1.50;;;14.20;7.50;;;;;;4995982;28;34033;-77
2022/07/19 04:52:51;;;;;;;1.60;1.48;;;14.20;7.50;;;;;;5021382;28;35859;-77
2022/07/19 04:55:16;;;;;;;3.70;1.67;;;14.30;7.50;;;;;;5022129;27;34321;-76
2022/07/19 04:57:42;;;;;;;1.60;1.50;;;14.30;7.50;;;;;;5022418;28;34138;-77
2022/07/19 05:00:10;;;;;;;2.03;1.83;;;14.40;7.50;;;;;;5008035;28;34262;-77
2022/07/19 05:02:37;;;;;;;3.88;1.77;;;14.40;7.60;;;;;;5012742;28;36579;-78
2022/07/19 05:05:04;;;;;;;2.92;1.83;;;14.50;7.60;;;;;;5012186;28;34217;-77
2022/07/19 05:07:30;;;;;;;1.80;1.70;;;14.50;7.50;;;;;;5001698;28;34282;-77
2022/07/19 05:09:56;;;;;;;3.35;1.83;;;14.60;7.50;;;;;;5004795;28;34060;-77
2022/07/19 05:12:22;;;;;;;4.10;1.50;;;14.60;7.40;;;;;;5065561;27;36383;-77
2022/07/19 05:14:48;;;;;;;3.47;1.80;;;14.70;7.40;;;;;;5007330;27;34365;-77
2022/07/19 05:17:15;;;;;;;1.85;1.75;;;14.70;7.40;;;;;;5001648;28;34138;-77
2022/07/19 05:19:41;;;;;;;6.68;1.80;;;14.80;7.40;;;;;;4976013;28;34455;-77
2022/07/19 05:22:07;;;;;;;2.17;1.77;;;15.00;7.40;;;;;;5007719;28;34372;-76
2022/07/19 05:24:33;;;;;;;2.15;1.95;;;15.20;7.30;;;;;;5007191;28;34250;-77
2022/07/19 05:27:00;;;;;;;1.98;1.80;;;15.70;7.00;;;;;;5001774;28;34408;-77
2022/07/19 05:29:26;;;;;;;2.47;1.90;;;16.50;6.10;;;;;;5001881;28;34564;-77
2022/07/19 05:31:52;;;;;;;1.90;1.70;;;17.50;4.90;;;;;;5001004;28;34900;-77
2022/07/19 05:34:17;;;;;;;3.80;1.88;;;18.50;3.50;;;;;;5001311;28;34238;-77
2022/07/19 05:36:43;;;;;;;2.25;2.05;;;19.50;2.20;;;;;;5001419;28;34099;-77
2022/07/19 05:39:09;;;;;;;4.07;1.77;;;20.40;1.00;;;;;;4981869;28;34409;-77
2022/07/19 05:41:35;;;;;;;17.50;2.20;;;21.20;1.00;;;;;;4995119;28;35555;-78
2022/07/19 05:44:01;;;;;;;2.03;1.60;;;22.00;1.00;;;;;;4997914;28;34316;-78
2022/07/19 05:46:27;;;;;;;2.05;1.75;;;22.70;1.00;;;;;;4998203;28;34374;-78
2022/07/19 05:48:53;;;;;;;2.53;1.73;;;23.30;1.00;;;;;;5001384;28;34385;-77
2022/07/19 05:51:19;;;;;;;2.13;1.70;;;23.90;1.00;;;;;;5000142;28;36253;-78
2022/07/19 05:53:45;;;;;;;2.88;1.90;;;24.40;1.00;;;;;;5039981;28;34096;-78
2022/07/19 05:56:11;;;;;;;3.67;2.00;;;25.00;1.00;;;;;;5027671;28;34119;-78
2022/07/19 05:58:37;;;;;;;8.77;1.95;;;25.50;1.00;;;;;;5020789;28;34306;-75
2022/07/19 06:03:48;;;;;;;2.03;1.73;;;26.60;1.00;;;;;;5021141;28;34323;-75
2022/07/19 06:06:15;;;;;;;1.92;1.73;;;27.00;1.00;;;;;;5043603;28;34265;-76
2022/07/19 06:08:41;;;;;;;1.83;1.73;;;27.50;1.00;;;;;;5012386;27;34471;-76
2022/07/19 06:11:07;;;;;;;3.13;1.70;;;27.90;1.00;;;;;;5003952;28;34792;-76
2022/07/19 06:13:33;;;;;;;3.97;1.60;;;28.20;1.00;;;;;;4988456;28;34392;-76
2022/07/19 06:15:59;;;;;;;5.05;1.77;;;28.50;1.00;;;;;;5019190;28;33852;-77
2022/07/19 06:18:25;;;;;;;3.03;1.50;;;28.80;1.00;;;;;;5047855;28;34393;-76
2022/07/19 06:20:51;;;;;;;2.60;1.67;;;29.20;1.00;;;;;;5045431;27;35662;-77
2022/07/19 06:23:17;;;;;;;1.55;1.38;;;29.50;1.00;;;;;;5036550;28;34245;-77
2022/07/19 06:25:43;;;;;;;1.70;1.40;;;29.80;1.00;;;;;;5029644;27;34259;-77
2022/07/19 06:28:09;;;;;;;1.52;1.40;;;30.10;1.00;;;;;;5018994;28;34251;-77
2022/07/19 06:30:35;;;;;;;2.20;1.85;;;30.30;1.00;;;;;;5074796;27;35817;-77
2022/07/19 06:33:01;;;;;;;9.18;2.28;;;30.70;1.00;;;;;;5113071;27;34395;-77
2022/07/19 06:35:27;;;;;;;2.55;1.40;;;30.90;1.00;;;;;;5031192;28;34363;-77
2022/07/19 06:37:53;;;;;;;2.78;1.55;;;31.20;1.00;;;;;;5064763;27;34158;-77
2022/07/19 06:40:19;;;;;;;1.52;1.42;;;31.50;1.00;;;;;;5009446;28;36336;-76
2022/07/19 06:42:45;;;;;;;3.97;1.63;;;31.70;1.00;;;;;;5039673;27;34081;-76
2022/07/19 06:45:11;;;;;;;2.10;1.40;;;32.10;1.00;;;;;;5051014;28;34060;-76
2022/07/19 06:47:37;;;;;;;3.17;1.60;;;32.30;1.00;;;;;;5035363;28;34157;-76
2022/07/19 06:50:04;;;;;;;2.25;1.52;;;32.60;1.00;;;;;;5024678;28;34027;-77
2022/07/19 06:52:30;;;;;;;1.55;1.42;;;32.90;1.00;;;;;;5024758;28;34325;-76
2022/07/19 06:54:56;;;;;;;1.75;1.50;;;33.10;1.00;;;;;;5036415;28;34837;-76
2022/07/19 06:57:21;;;;;;;4.18;1.67;;;33.30;1.00;;;;;;5024004;28;35529;-76
2022/07/19 06:59:47;;;;;;;5.90;1.85;;;33.50;1.00;;;;;;5010795;28;34381;-77
2022/07/19 07:02:13;;;;;;;2.40;1.80;;;33.70;1.00;;;;;;5042439;27;34423;-76
2022/07/19 07:04:39;;;;;;;1.60;1.50;;;33.90;1.00;;;;;;5004178;28;34087;-76
2022/07/19 07:07:05;;;;;;;3.72;1.40;;;34.10;1.00;;;;;;5034939;27;34205;-76
2022/07/19 07:09:31;;;;;;;4.72;2.25;;;34.20;1.00;;;;;;5066205;27;35898;-76
2022/07/19 07:11:58;;;;;;;2.65;1.60;;;34.30;1.00;;;;;;5014770;28;34221;-76
2022/07/19 07:14:24;;;;;;;3.47;1.80;;;34.40;1.00;;;;;;5035999;28;34311;-76
2022/07/19 07:16:49;;;;;;;4.20;1.70;;;34.50;1.00;;;;;;5028414;28;34326;-77
2022/07/19 07:19:15;;;;;;;2.50;1.55;;;34.50;1.00;;;;;;5031659;28;35523;-76
2022/07/19 07:21:41;;;;;;;4.05;1.40;;;34.60;1.00;;;;;;5016031;28;34117;-75
2022/07/19 07:24:07;;;;;;;1.95;1.40;;;34.40;1.00;;;;;;5039072;28;34267;-76
2022/07/19 07:26:33;;;;;;;1.50;1.40;;;34.20;1.00;;;;;;5041441;28;34186;-76
2022/07/19 07:29:00;;;;;;;1.98;1.58;;;34.20;1.00;;;;;;5016710;28;35729;-76
2022/07/19 07:31:26;;;;;;;5.95;1.33;;;34.30;1.00;;;;;;5026116;28;34308;-76
2022/07/19 07:33:52;;;;;;;3.58;1.40;;;34.30;1.00;;;;;;5030521;27;34479;-76
2022/07/19 07:36:18;;;;;;;4.25;1.55;;;34.40;1.00;;;;;;5031389;28;34065;-77
2022/07/19 07:38:45;;;;;;;2.38;1.50;;;34.50;1.00;;;;;;5015394;28;34458;-76
2022/07/19 07:41:11;;;;;;;4.60;1.77;;;34.60;1.00;;;;;;5006785;28;34294;-76
2022/07/19 07:43:37;;;;;;;3.13;1.63;;;34.60;1.00;;;;;;5008103;28;34437;-76
2022/07/19 07:46:03;;;;;;;2.88;1.77;;;34.80;1.00;;;;;;5003682;28;34251;-76
2022/07/19 07:48:29;;;;;;;1.60;1.50;;;35.00;1.00;;;;;;5034034;28;34313;-76
2022/07/19 07:50:55;;;;;;;3.80;1.58;;;35.10;1.00;;;;;;5023850;28;34250;-76
2022/07/19 07:53:20;;;;;;;3.08;1.67;;;35.20;1.00;;;;;;5037487;28;34331;-76
2022/07/19 07:55:46;;;;;;;4.85;1.48;;;35.20;1.00;;;;;;5007408;28;34389;-76
2022/07/19 07:58:13;;;;;;;2.65;1.63;;;35.30;1.00;;;;;;5039527;27;35650;-76
2022/07/19 08:00:40;;;;;;;2.53;1.50;;;35.50;1.00;;;;;;5050213;28;34360;-77
2022/07/19 08:03:07;;;;;;;1.90;1.40;;;35.50;1.00;;;;;;5022356;28;34359;-77
2022/07/19 08:05:34;;;;;;;4.13;1.65;;;35.70;1.00;;;;;;5018139;28;34393;-77
2022/07/19 08:08:00;;;;;;;3.55;1.73;;;35.90;1.00;;;;;;5025457;28;35225;-76
2022/07/19 08:10:31;;;;;;;5.75;2.25;;;36.00;1.00;;;;;;5037781;27;34411;-76
2022/07/19 08:12:57;;;;;;;1.50;1.40;;;35.90;1.00;;;;;;5034269;28;34151;-77
2022/07/19 08:15:23;;;;;;;2.17;1.65;;;35.90;1.00;;;;;;5047113;28;34400;-76
2022/07/19 08:17:49;;;;;;;4.97;1.55;;;36.20;1.00;;;;;;5033881;28;35520;-77
2022/07/19 08:20:15;;;;;;;5.18;1.65;;;36.50;1.00;;;;;;5032906;28;34486;-78
2022/07/19 08:22:41;;;;;;;3.58;1.58;;;36.80;1.00;;;;;;5010193;28;34207;-76
2022/07/19 08:25:08;;;;;;;1.88;1.38;;;37.10;1.00;;;;;;5023691;28;34401;-77
2022/07/19 08:27:34;;;;;;;4.88;1.63;;;37.30;1.00;;;;;;5019734;28;35686;-76
2022/07/19 08:30:01;;;;;;;2.53;1.73;;;37.50;1.00;;;;;;5025918;28;34229;-76
2022/07/19 08:32:27;;;;;;;4.43;1.60;;;37.50;1.00;;;;;;5043575;28;34272;-76
2022/07/19 08:34:53;;;;;;;2.08;1.30;;;37.60;1.00;;;;;;5009138;28;34209;-77
2022/07/19 08:37:19;;;;;;;2.80;1.45;;;37.50;1.00;;;;;;5023401;27;36237;-76
2022/07/19 08:39:45;;;;;;;1.92;1.35;;;37.50;1.00;;;;;;5039018;27;34324;-76
2022/07/19 08:42:11;;;;;;;1.70;1.40;;;37.70;1.00;;;;;;5019081;28;34017;-77
2022/07/19 08:44:39;;;;;;;8.60;1.92;;;37.90;1.00;;;;;;5016231;28;34313;-77
2022/07/19 08:47:05;;;;;;;2.20;1.38;;;38.00;1.00;;;;;;5013568;28;35931;-76
2022/07/19 08:49:32;;;;;;;4.38;1.50;;;38.10;1.00;;;;;;5061510;27;34417;-76
2022/07/19 08:51:58;;;;;;;1.48;1.25;;;38.10;1.00;;;;;;5026875;28;34234;-76
2022/07/19 08:54:25;;;;;;;1.90;1.52;;;38.20;1.00;;;;;;5041418;28;34117;-76
2022/07/19 08:59:32;;;;;;;4.55;1.55;;;38.10;1.00;;;;;;5042181;28;34345;-76
2022/07/19 09:01:58;;;;;;;2.28;1.40;;;38.10;1.00;;;;;;5034884;28;34226;-76
2022/07/19 09:04:27;;;;;;;4.68;1.58;;;38.30;1.00;;;;;;5025624;28;34553;-76
2022/07/19 09:06:55;;;;;;;6.50;1.63;;;38.50;1.00;;;;;;5041036;28;35876;-77
2022/07/19 09:09:26;;;;;;;3.92;1.35;;;38.50;1.00;;;;;;5043193;28;34262;-76
2022/07/19 09:11:53;;;;;;;2.65;1.50;;;38.50;1.00;;;;;;5029196;28;34094;-76
2022/07/19 09:14:25;;;;;;;3.08;1.40;;;38.60;1.00;;;;;;5011905;28;34195;-77
2022/07/19 09:17:02;;;;;;;4.15;1.48;;;38.60;1.00;;;;;;5026052;28;35612;-76
2022/07/19 09:19:32;;;;;;;2.45;1.40;;;38.70;1.00;;;;;;5027291;28;34349;-76
2022/07/19 09:22:03;;;;;;;3.45;1.38;;;38.70;1.00;;;;;;5021580;28;34255;-76
2022/07/19 09:24:32;;;;;;;1.80;1.40;;;38.80;1.00;;;;;;5023475;28;34147;-76
2022/07/19 09:27:01;;;;;;;1.73;1.35;;;38.90;1.00;;;;;;5041488;28;34819;-76
2022/07/19 09:29:29;;;;;;;1.38;1.33;;;39.20;1.00;;;;;;5030102;28;34391;-77
2022/07/19 09:32:09;;;;;;;1.90;1.70;;;39.40;1.00;;;;;;5031528;28;34247;-77
2022/07/19 09:34:39;;;;;;;4.22;1.30;;;39.60;1.00;;;;;;5024772;28;34516;-76
2022/07/19 09:37:16;;;;;;;2.88;1.40;;;39.60;1.00;;;;;;5039402;28;35845;-77
2022/07/19 09:39:46;;;;;;;3.22;1.42;;;39.70;1.00;;;;;;5049136;28;34691;-75
2022/07/19 09:42:15;;;;;;;1.40;1.27;;;39.70;1.00;;;;;;5050143;28;34101;-75
2022/07/19 09:44:42;;;;;;;3.60;1.40;;;39.70;1.00;;;;;;5022835;28;34209;-74
2022/07/19 09:47:09;;;;;;;1.92;1.60;;;39.70;1.00;;;;;;5014989;28;35559;-74
2022/07/19 09:49:35;;;;;;;4.10;2.25;;;39.80;1.00;;;;;;5034799;27;34255;-75
2022/07/19 09:52:02;;;;;;;2.85;1.70;;;39.90;1.00;;;;;;5054741;27;34161;-74
2022/07/19 09:54:31;;;;;;;2.42;1.50;;;40.00;1.00;;;;;;5038251;28;34080;-76
2022/07/19 09:56:59;;;;;;;1.85;1.40;;;40.10;1.00;;;;;;5015089;28;35522;-75
2022/07/19 09:59:26;;;;;;;6.30;1.67;;;40.20;1.00;;;;;;5009573;28;34100;-75
2022/07/19 10:01:55;;;;;;;3.15;1.45;;;40.20;1.00;;;;;;5016234;28;34537;-75
2022/07/19 10:04:23;;;;;;;2.53;1.13;;;40.20;1.00;;;;;;5013255;28;34818;-76
2022/07/19 10:06:51;;;;;;;17.50;2.53;;;40.20;1.00;;;;;;4990876;28;35932;-75
2022/07/19 10:09:20;;;;;;;2.75;1.58;;;40.20;1.00;;;;;;5035343;28;34390;-74
2022/07/19 10:11:46;;;;;;;1.40;1.30;;;40.30;1.00;;;;;;5036619;28;34132;-74
2022/07/19 10:14:13;;;;;;;3.38;1.50;;;40.40;1.00;;;;;;5026327;28;34102;-76
2022/07/19 10:17:10;;;;;;;3.60;1.70;;;40.50;1.00;;;;;;5033542;28;34475;-76
2022/07/19 10:19:40;;;;;;;1.48;1.38;;;40.50;1.00;;;;;;5032222;28;34099;-76
2022/07/19 10:22:11;;;;;;;1.40;1.30;;;40.50;1.00;;;;;;5027063;28;34210;-75
2022/07/19 10:24:55;;;;;;;2.30;1.35;;;40.50;1.00;;;;;;5024610;28;34134;-75
2022/07/19 10:27:42;;;;;;;1.85;1.30;;;40.60;1.00;;;;;;5035783;27;34386;-76
2022/07/19 10:30:20;;;;;;;4.68;1.45;;;40.60;1.00;;;;;;5011498;28;34658;-78
2022/07/19 10:32:47;;;;;;;2.10;1.35;;;40.60;1.00;;;;;;5030767;28;34092;-76
2022/07/19 10:35:28;;;;;;;3.60;1.65;;;40.60;1.00;;;;;;5007306;28;34234;-75
2022/07/19 10:38:09;;;;;;;2.95;1.40;;;40.70;1.00;;;;;;5009790;28;35693;-76
2022/07/19 10:40:56;;;;;;;5.35;1.48;;;40.80;1.00;;;;;;5021248;28;34399;-75
2022/07/19 10:43:24;;;;;;;1.50;1.38;;;41.10;1.00;;;;;;5040888;28;34170;-75
2022/07/19 10:46:10;;;;;;;4.35;1.50;;;41.20;1.00;;;;;;5020088;28;34485;-77
2022/07/19 10:48:39;;;;;;;1.52;1.17;;;41.20;1.00;;;;;;5042927;28;35608;-76
2022/07/19 10:51:07;;;;;;;4.82;1.63;;;41.10;1.00;;;;;;5025197;28;34186;-75
2022/07/19 10:53:53;;;;;;;2.65;1.60;;;41.00;1.00;;;;;;5006781;28;34249;-77
2022/07/19 10:56:24;;;;;;;2.28;1.52;;;41.10;1.00;;;;;;5015412;28;34340;-75
2022/07/19 10:58:54;;;;;;;4.82;2.55;;;41.20;1.00;;;;;;5040722;28;34257;-75
2022/07/19 11:01:22;;;;;;;16.58;2.40;;;41.30;1.00;;;;;;5009431;28;34191;-75
2022/07/19 11:03:50;;;;;;;5.85;1.98;;;41.30;1.00;;;;;;5016741;28;34143;-77
2022/07/19 11:06:23;;;;;;;3.22;1.70;;;41.40;1.00;;;;;;5097359;27;34284;-74
2022/07/19 11:08:54;;;;;;;2.22;1.60;;;41.40;1.00;;;;;;5029497;28;35807;-75
2022/07/19 11:11:20;;;;;;;6.63;1.80;;;41.40;1.00;;;;;;5040990;28;34232;-77
2022/07/19 11:13:49;;;;;;;2.38;1.50;;;41.40;1.00;;;;;;5017663;28;34452;-78
2022/07/19 11:16:15;;;;;;;4.63;1.63;;;41.40;1.00;;;;;;5046346;27;34207;-75
2022/07/19 11:18:43;;;;;;;3.00;1.42;;;41.40;1.00;;;;;;5040896;28;34213;-76
2022/07/19 11:21:12;;;;;;;4.18;1.55;;;41.50;1.00;;;;;;5041583;28;34101;-76
2022/07/19 11:23:39;;;;;;;1.58;1.40;;;41.60;1.00;;;;;;5043162;28;34297;-76
2022/07/19 11:26:17;;;;;;;3.10;1.50;;;41.70;1.00;;;;;;5021346;28;34635;-77
2022/07/19 11:28:46;;;;;;;2.58;1.23;;;41.70;1.00;;;;;;5005370;28;34192;-76
2022/07/19 11:31:18;;;;;;;2.15;1.30;;;41.80;1.00;;;;;;5036031;28;34242;-76
2022/07/19 11:33:46;;;;;;;2.15;1.60;;;41.80;1.00;;;;;;5021461;28;34162;-77
2022/07/19 11:36:15;;;;;;;2.03;1.27;;;41.80;1.00;;;;;;5004610;28;36113;-78
2022/07/19 11:38:44;;;;;;;3.00;1.38;;;41.70;1.00;;;;;;5037692;28;34925;-75
2022/07/19 11:41:18;;;;;;;2.42;1.30;;;41.80;1.00;;;;;;5056187;27;34134;-77
2022/07/19 11:43:44;;;;;;;2.10;1.30;;;41.70;1.00;;;;;;5019575;28;34298;-76
2022/07/19 11:46:15;;;;;;;4.22;2.63;;;41.60;1.00;;;;;;5038087;27;34076;-75
2022/07/19 11:48:41;;;;;;;1.98;1.20;;;41.60;1.00;;;;;;5027171;28;34245;-75
2022/07/19 11:51:09;;;;;;;2.83;1.40;;;41.60;1.00;;;;;;5001869;28;34131;-76
2022/07/19 11:53:38;;;;;;;2.00;1.50;;;41.70;1.00;;;;;;5006125;28;34210;-75
2022/07/19 11:56:06;;;;;;;1.40;1.30;;;41.80;1.00;;;;;;5014368;28;34298;-80
2022/07/19 11:58:33;;;;;;;2.65;1.20;;;41.80;1.00;;;;;;5006628;28;35773;-77
2022/07/19 12:01:03;;;;;;;1.77;1.10;;;41.80;1.00;;;;;;5006367;28;34170;-75
2022/07/19 12:03:29;;;;;;;4.70;1.50;;;41.70;1.00;;;;;;5040701;28;34190;-77
2022/07/19 12:05:58;;;;;;;2.20;1.30;;;41.60;1.00;;;;;;5022889;28;34269;-77
2022/07/19 12:08:42;;;;;;;2.90;1.30;;;41.60;1.00;;;;;;5030705;28;36489;-76
2022/07/19 12:11:24;;;;;;;2.05;1.48;;;41.40;1.00;;;;;;5025174;28;34162;-76
2022/07/19 12:13:52;;;;;;;1.92;0.98;;;41.60;1.00;;;;;;5006502;28;34244;-76
2022/07/19 12:16:19;;;;;;;1.73;1.20;;;41.50;1.00;;;;;;5031505;28;34346;-75
2022/07/19 12:18:51;;;;;;;3.70;1.30;;;41.50;1.00;;;;;;5011134;28;36005;-76
2022/07/19 12:21:40;;;;;;;1.92;1.40;;;41.60;1.00;;;;;;5030489;28;34029;-77
2022/07/19 12:24:23;;;;;;;2.13;1.67;;;41.60;1.00;;;;;;5033616;28;34340;-78
2022/07/19 12:26:57;;;;;;;1.55;1.42;;;41.50;1.00;;;;;;5041064;28;34024;-77
2022/07/19 12:29:30;;;;;;;1.30;1.13;;;41.40;1.00;;;;;;5023944;28;35697;-76
2022/07/19 12:31:59;;;;;;;2.25;1.35;;;41.40;1.00;;;;;;5022250;28;34270;-76
2022/07/19 12:34:25;;;;;;;1.88;1.30;;;41.60;1.00;;;;;;5038629;28;34279;-77
2022/07/19 12:36:51;;;;;;;2.85;1.40;;;41.60;1.00;;;;;;5029048;28;34241;-76
2022/07/19 12:39:21;;;;;;;2.25;1.40;;;41.70;1.00;;;;;;5027690;27;36094;-78
2022/07/19 12:42:05;;;;;;;1.48;1.38;;;41.80;1.00;;;;;;5038464;28;34105;-76
2022/07/19 12:44:32;;;;;;;2.42;1.50;;;41.60;1.00;;;;;;5034279;28;34651;-77
2022/07/19 12:46:58;;;;;;;2.60;1.52;;;41.80;1.00;;;;;;4998862;28;34306;-77
2022/07/19 12:49:25;;;;;;;2.65;1.65;;;41.80;1.00;;;;;;5014644;28;35706;-77
2022/07/19 12:51:52;;;;;;;4.03;1.83;;;41.80;1.00;;;;;;5041239;28;34013;-76
2022/07/19 12:54:18;;;;;;;2.05;1.55;;;41.60;1.00;;;;;;5036798;28;34287;-76
2022/07/19 12:56:44;;;;;;;2.85;1.85;;;41.60;1.00;;;;;;5013138;28;34553;-77
2022/07/19 13:01:52;;;;;;;2.05;1.50;;;41.60;1.00;;;;;;5041886;28;34394;-76
2022/07/19 13:04:18;;;;;;;1.50;1.40;;;41.60;1.00;;;;;;5023804;28;34333;-79
2022/07/19 13:06:44;;;;;;;3.58;1.60;;;41.50;1.00;;;;;;5046914;27;34119;-77
2022/07/19 13:09:10;;;;;;;1.58;1.33;;;41.40;1.00;;;;;;5030284;28;34325;-75
2022/07/19 13:11:36;;;;;;;1.65;1.27;;;41.40;1.00;;;;;;5041629;28;34151;-75